• Join FlightAware (Why Join?)
  • Login
  • US Flag 
01:55PM EDT


 

Airport Tracker/Info


-or-


 

Live Flight TrackerFlight Track Log ✈ SWA197 ✈ 17-Apr-2014 ✈ KBWI - KORF

Flight Track Log - Related Links

Times and Time Zones

All times are in EDT time to prevent confusion due to time zone crossing. See the SWA197 flight status page for this flight to view local times or setup timezone preferences in your user account.

Time Position Orientation Groundspeed Altitude Reporting Facility
EDT Latitude Longitude Course Direction KTS MPH feet Rate Location/Type
08:40PM 39.1167 -76.6333 184° South 188 216 3,500  Level Potomac TRACON
08:41PM 39.0500 -76.5667 142° Southeast 252 290 5,800 2,520 Climbing Potomac TRACON
08:42PM 39.0000 -76.5167 142° Southeast 286 329 8,900 2,580 Climbing Potomac TRACON
08:44PM 38.8719 -76.5408 188° South 318 366 12,700 1,920 Climbing Washington Center
08:45PM 38.6889 -76.7061 184° South  Level FlightAware Approximate
08:45PM 38.7883 -76.5878 204° Southwest 323 372 14,000  Level Washington Center
08:46PM 38.7067 -76.6372 205° Southwest 328 377 14,000  Level Washington Center
08:47PM 38.6247 -76.6892 206° Southwest 333 383 14,000  Level Washington Center
08:48PM 38.5411 -76.7250 199° South 333 383 14,000  Level Washington Center
08:49PM 38.4475 -76.7158 176° South 327 376 14,000  Level Washington Center
08:50PM 38.3536 -76.7011 173° South 333 383 14,000  Level Washington Center
08:51PM 38.2558 -76.6864 173° South 341 392 14,000  Level Washington Center
08:52PM 38.1558 -76.6717 173° South 356 410 14,000  Level Washington Center
08:53PM 38.0578 -76.6678 178° South 356 410 14,000  Level Washington Center
08:54PM 37.9556 -76.6742 183° South 356 410 14,000  Level Washington Center
08:55PM 37.8533 -76.6753 180° South 366 421 14,000  Level Washington Center
08:56PM 37.7750 -76.5822 137° Southeast 345 397 14,000  Level Washington Center
08:56PM 37.7397 -76.5372 135° Southeast 389 448 14,000 -120 Level Washington Center
08:57PM 37.7028 -76.4817 130° Southeast 363 418 13,900 -1,380 Descending Washington Center
08:57PM 37.6572 -76.4233 135° Southeast 384 442 12,500 -1,980 Descending Washington Center
08:58PM 37.6303 -76.3889 135° Southeast 368 423 11,900 -1,260 Descending Washington Center
08:58PM 37.5681 -76.3700 166° South 368 423 11,300 -1,080 Descending Washington Center
08:59PM 37.5325 -76.3539 160° South 350 403 10,900 -1,140 Descending Washington Center
08:59PM 37.4700 -76.3456 174° South 348 400 10,200 -1,020 Descending Washington Center
09:00PM 37.4367 -76.3294 159° South 350 403 9,900 -600 Descending Washington Center
09:00PM 37.3742 -76.3211 174° South 288 331 9,500 -600 Descending Washington Center
09:01PM 37.3575 -76.3131 159° South 326 375 9,300 -1,320 Descending Washington Center
09:01PM 37.2992 -76.3019 171° South 277 319 8,300 -1,140 Descending Washington Center
09:02PM 37.2825 -76.2967 166° South 298 343 8,200 -1,200 Descending Washington Center
09:02PM 37.2306 -76.2883 173° South 277 319 7,200 -1,380 Descending Washington Center
09:03PM 37.2075 -76.2778 160° South 285 328 6,800 -1,140 Descending Washington Center
09:03PM 37.1639 -76.2694 171° South 272 313 6,200 -1,080 Descending Washington Center
09:04PM 37.1347 -76.2589 164° South 275 316 5,800 -1,020 Descending Washington Center
09:04PM 37.0908 -76.2533 174° South 267 307 5,200 -1,020 Descending Washington Center
09:05PM 37.0617 -76.2425 163° South 275 316 4,800 -1,140 Descending Washington Center
09:05PM 37.0283 -76.2553 197° South 256 295 4,200 -1,140 Descending Washington Center
09:06PM 36.9675 -76.2964 208° Southwest 248 285 3,100 -600 Descending Washington Center
09:07PM 36.9111 -76.3375 210° Southwest 228 262 3,000 -60 Descending Washington Center
09:08PM 36.8544 -76.3836 213° Southwest 230 265 3,000 -240 Level Washington Center
09:09PM 36.7981 -76.3986 192° South 219 252 2,600 -720 Descending Washington Center
09:10PM 36.7817 -76.3361 108° East 193 222 1,600 -540 Descending Washington Center
09:11PM 36.8069 -76.2897 56° Northeast 151 174 1,600 -60 Level Washington Center
09:12PM 36.8322 -76.2667 36° Northeast 146 168 1,500 -480 Descending Washington Center
09:13PM 36.8617 -76.2383 38° Northeast 119 137 800 -720 Descending Washington Center